EGPH

Edinburgh Airport

Edinburgh, United Kingdom
TAF EGPH 132254Z 1400/1424 14009KT 9999 FEW035 PROB30 1406/1412 8000
Issued Valid From Valid To
Dec-13 @ 22:54 UTC
(3 hours ago)
Dec-14 @ 00:00 UTC
(2 hours ago)
Dec-15 @ 00:00 UTC
(in 22 hours)
Dec-14 @ 00:00 to Dec-15 @ 00:00
TAF EGPH 132254Z 1400/1424 14009KT 9999 FEW035
Wind Visibility Clouds
140° at 9 knots 10,000+ meters
  • Few at 3,500' AGL
Probable  (Probability 30%) Dec-14 @ 06:00 to Dec-14 @ 12:00
PROB30 1406/1412 8000
Visibility
7,998 meters
TAF EGPH 132254Z 1400/1424 14009KT 9999 FEW035 PROB30 1406/1412 8000
Issued Dec-13 @ 22:54 UTC
(3 hours ago)
Valid From Dec-14 @ 00:00 UTC
(2 hours ago)
Valid To Dec-15 @ 00:00 UTC
(in 22 hours)
Dec-14 @ 00:00 - Dec-15 @ 00:00
Wind Visibility
140° at 9 knots 10,000+ meters
Clouds
  • Few at 3,500' AGL
Probability 30% Probable Dec-14 @ 06:00 - Dec-14 @ 12:00